Time;durP1;ratioP1;P1;durP2;ratioP2;P2;SDS_P1;SDS_P2;PMS_P1;PMS_P2;Temp;Humidity;BMP_temperature;BMP_pressure;BME280_temperature;BME280_humidity;BME280_pressure;Samples;Min_cycle;Max_cycle;Signal;HPM_P1;HPM_P2
2021/04/20 00:02:23;;;;;;;16.13;12.07;;;;;;;;;;5052316;28;20277;-64
2021/04/20 00:04:51;;;;;;;19.43;12.33;;;;;;;;;;5052704;28;20330;-64
2021/04/20 00:07:17;;;;;;;19.37;12.10;;;;;;;;;;5052644;28;20593;-64
2021/04/20 00:09:45;;;;;;;17.13;12.33;;;;;;;;;;5052283;28;20212;-63
2021/04/20 00:12:12;;;;;;;20.40;13.63;;;;;;;;;;5052166;28;20211;-64
2021/04/20 00:14:38;;;;;;;17.73;12.33;;;;;;;;;;5050211;28;20721;-64
2021/04/20 00:17:05;;;;;;;15.23;11.83;;;;;;;;;;5050534;28;20315;-64
2021/04/20 00:19:31;;;;;;;18.40;12.43;;;;;;;;;;5052010;28;20581;-63
2021/04/20 00:21:59;;;;;;;18.00;12.03;;;;;;;;;;5052388;28;20209;-64
2021/04/20 00:24:25;;;;;;;16.00;11.67;;;;;;;;;;5051022;28;20220;-64
2021/04/20 00:26:52;;;;;;;17.03;11.80;;;;;;;;;;5051993;28;20214;-64
2021/04/20 00:29:18;;;;;;;15.07;12.13;;;;;;;;;;5052068;28;20671;-63
2021/04/20 00:31:45;;;;;;;18.70;12.27;;;;;;;;;;5051776;28;20257;-64
2021/04/20 00:34:11;;;;;;;15.63;12.17;;;;;;;;;;5051881;28;20227;-63
2021/04/20 00:36:38;;;;;;;15.87;11.90;;;;;;;;;;5052165;28;20208;-64
2021/04/20 00:39:06;;;;;;;16.47;11.27;;;;;;;;;;5052087;28;20581;-64
2021/04/20 00:41:32;;;;;;;15.80;11.10;;;;;;;;;;5051437;28;20236;-64
2021/04/20 00:43:59;;;;;;;18.27;13.27;;;;;;;;;;5051906;28;20656;-64
2021/04/20 00:46:25;;;;;;;14.87;11.23;;;;;;;;;;5053056;28;20208;-64
2021/04/20 00:48:52;;;;;;;15.47;12.00;;;;;;;;;;5051670;28;20726;-64
2021/04/20 00:51:18;;;;;;;16.57;12.23;;;;;;;;;;5049822;28;20230;-64
2021/04/20 00:53:45;;;;;;;15.60;11.10;;;;;;;;;;5052573;28;20607;-64
2021/04/20 00:56:14;;;;;;;16.97;12.60;;;;;;;;;;5053919;28;20202;-64
2021/04/20 00:58:40;;;;;;;17.97;12.10;;;;;;;;;;5052955;28;20242;-62
2021/04/20 01:01:07;;;;;;;16.23;12.43;;;;;;;;;;5051386;28;20209;-63
2021/04/20 01:03:33;;;;;;;17.47;12.37;;;;;;;;;;5051698;28;20210;-61
2021/04/20 01:06:00;;;;;;;16.50;12.27;;;;;;;;;;5051610;28;20212;-63
2021/04/20 01:08:27;;;;;;;18.27;12.53;;;;;;;;;;5051852;28;20555;-63
2021/04/20 01:10:55;;;;;;;17.10;12.23;;;;;;;;;;5051200;28;20209;-63
2021/04/20 01:13:23;;;;;;;21.63;13.10;;;;;;;;;;5051844;28;20937;-61
2021/04/20 01:15:50;;;;;;;18.13;12.73;;;;;;;;;;5051911;28;20210;-63
2021/04/20 01:18:21;;;;;;;19.07;12.93;;;;;;;;;;5051610;28;20201;-63
2021/04/20 01:20:50;;;;;;;17.53;13.57;;;;;;;;;;5051366;28;20466;-63
2021/04/20 01:23:20;;;;;;;16.50;12.60;;;;;;;;;;5051227;28;20244;-63
2021/04/20 01:25:47;;;;;;;18.93;13.00;;;;;;;;;;5051924;28;20230;-64
2021/04/20 01:28:14;;;;;;;17.47;12.63;;;;;;;;;;5051344;28;20213;-63
2021/04/20 01:30:41;;;;;;;20.03;13.10;;;;;;;;;;5051306;28;20206;-63
2021/04/20 01:33:09;;;;;;;20.10;13.43;;;;;;;;;;5051369;28;20217;-63
2021/04/20 01:35:36;;;;;;;18.43;13.50;;;;;;;;;;5054555;28;20323;-63
2021/04/20 01:38:02;;;;;;;16.87;12.47;;;;;;;;;;5055560;28;20444;-63
2021/04/20 01:40:29;;;;;;;17.67;12.57;;;;;;;;;;5054968;28;20271;-63
2021/04/20 01:42:56;;;;;;;20.20;14.20;;;;;;;;;;5055385;28;20662;-63
2021/04/20 01:45:23;;;;;;;18.23;13.53;;;;;;;;;;5055206;28;20225;-63
2021/04/20 01:47:50;;;;;;;18.50;14.17;;;;;;;;;;5055396;28;20448;-63
2021/04/20 01:50:17;;;;;;;18.60;13.83;;;;;;;;;;5054698;28;20209;-63
2021/04/20 01:52:44;;;;;;;18.53;13.70;;;;;;;;;;5055052;28;20236;-63
2021/04/20 01:55:12;;;;;;;20.10;14.13;;;;;;;;;;5055092;28;20225;-63
2021/04/20 01:57:39;;;;;;;20.70;15.07;;;;;;;;;;5055077;28;20202;-63
2021/04/20 02:00:09;;;;;;;23.37;14.80;;;;;;;;;;5054860;28;20205;-63
2021/04/20 02:02:35;;;;;;;21.33;15.30;;;;;;;;;;5055214;28;21120;-63
2021/04/20 02:05:02;;;;;;;21.13;14.57;;;;;;;;;;5054903;28;20460;-63
2021/04/20 02:07:29;;;;;;;20.33;14.90;;;;;;;;;;5054845;28;20447;-63
2021/04/20 02:09:56;;;;;;;21.30;14.80;;;;;;;;;;5054702;28;20452;-63
2021/04/20 02:12:22;;;;;;;21.47;15.80;;;;;;;;;;5054988;28;20454;-64
2021/04/20 02:14:49;;;;;;;21.07;15.20;;;;;;;;;;5055279;28;20487;-63
2021/04/20 02:17:16;;;;;;;19.70;14.37;;;;;;;;;;5055428;28;20448;-64
2021/04/20 02:19:43;;;;;;;21.30;14.70;;;;;;;;;;5054082;28;20456;-64
2021/04/20 02:22:10;;;;;;;22.30;14.33;;;;;;;;;;5054783;28;20459;-64
2021/04/20 02:24:37;;;;;;;22.27;15.43;;;;;;;;;;5054459;28;20839;-64
2021/04/20 02:27:03;;;;;;;19.80;14.90;;;;;;;;;;5054704;28;20444;-64
2021/04/20 02:29:30;;;;;;;22.93;15.63;;;;;;;;;;5054678;28;20212;-64
2021/04/20 02:31:57;;;;;;;22.03;16.17;;;;;;;;;;5053932;28;20464;-64
2021/04/20 02:34:24;;;;;;;22.37;16.27;;;;;;;;;;5054217;28;20495;-64
2021/04/20 02:36:51;;;;;;;24.30;17.40;;;;;;;;;;5054418;28;20444;-64
2021/04/20 02:39:18;;;;;;;24.60;16.33;;;;;;;;;;5054441;28;20487;-64
2021/04/20 02:41:45;;;;;;;25.90;16.53;;;;;;;;;;5053704;28;20464;-64
2021/04/20 02:44:12;;;;;;;23.63;16.63;;;;;;;;;;5055080;28;21052;-63
2021/04/20 02:46:39;;;;;;;23.93;16.67;;;;;;;;;;5054013;28;20455;-62
2021/04/20 02:49:06;;;;;;;22.97;16.13;;;;;;;;;;5054420;28;20821;-63
2021/04/20 02:51:36;;;;;;;23.60;15.83;;;;;;;;;;5054270;28;20952;-63
2021/04/20 02:54:02;;;;;;;22.87;15.90;;;;;;;;;;5055169;28;20488;-64
2021/04/20 02:56:30;;;;;;;23.27;16.23;;;;;;;;;;5055228;28;20819;-63
2021/04/20 02:58:58;;;;;;;25.10;16.30;;;;;;;;;;5053772;28;20444;-64
2021/04/20 03:01:25;;;;;;;25.27;17.00;;;;;;;;;;5053602;28;20452;-63
2021/04/20 03:03:52;;;;;;;22.97;15.77;;;;;;;;;;5054025;28;20460;-64
2021/04/20 03:06:20;;;;;;;19.63;14.93;;;;;;;;;;5053929;28;20448;-64
2021/04/20 03:08:47;;;;;;;21.43;14.57;;;;;;;;;;5054161;28;20816;-64
2021/04/20 03:11:15;;;;;;;22.90;15.10;;;;;;;;;;5053164;28;20500;-64
2021/04/20 03:13:43;;;;;;;21.83;15.93;;;;;;;;;;5052703;28;20504;-64
2021/04/20 03:16:10;;;;;;;21.23;14.30;;;;;;;;;;5051424;28;20961;-63
2021/04/20 03:18:36;;;;;;;20.97;15.37;;;;;;;;;;5053358;28;20452;-63
2021/04/20 03:21:05;;;;;;;22.77;15.63;;;;;;;;;;5053222;28;20460;-64
2021/04/20 03:23:33;;;;;;;21.30;15.70;;;;;;;;;;5053613;28;20812;-64
2021/04/20 03:26:01;;;;;;;22.53;15.43;;;;;;;;;;5053506;28;20452;-64
2021/04/20 03:28:27;;;;;;;21.63;15.13;;;;;;;;;;5053272;28;20459;-64
2021/04/20 03:30:54;;;;;;;22.17;15.27;;;;;;;;;;5053293;28;20456;-63
2021/04/20 03:33:24;;;;;;;22.10;15.57;;;;;;;;;;5053420;28;20479;-63
2021/04/20 03:35:56;;;;;;;23.87;15.43;;;;;;;;;;5053440;28;20809;-64
2021/04/20 03:38:25;;;;;;;22.60;16.63;;;;;;;;;;5053241;28;20456;-63
2021/04/20 03:40:53;;;;;;;22.03;15.53;;;;;;;;;;5054015;28;20833;-63
2021/04/20 03:43:21;;;;;;;22.03;16.03;;;;;;;;;;5056687;28;20460;-63
2021/04/20 03:45:54;;;;;;;23.60;17.07;;;;;;;;;;5053502;28;20475;-63
2021/04/20 03:48:23;;;;;;;24.87;17.07;;;;;;;;;;5056318;28;20482;-63
2021/04/20 03:50:57;;;;;;;26.90;17.90;;;;;;;;;;5056442;28;20452;-64
2021/04/20 03:53:24;;;;;;;27.10;16.50;;;;;;;;;;5056149;28;20579;-63
2021/04/20 03:55:52;;;;;;;24.23;16.37;;;;;;;;;;5056739;28;20479;-63
2021/04/20 03:58:19;;;;;;;25.00;16.00;;;;;;;;;;5056811;28;20448;-64
2021/04/20 04:00:51;;;;;;;24.13;16.57;;;;;;;;;;5056964;28;20505;-63
2021/04/20 04:03:20;;;;;;;25.10;17.40;;;;;;;;;;5055895;28;20450;-64
2021/04/20 04:05:48;;;;;;;28.13;18.07;;;;;;;;;;5056299;28;20471;-63
2021/04/20 04:08:16;;;;;;;26.67;16.73;;;;;;;;;;5055481;28;20470;-64
2021/04/20 04:10:43;;;;;;;26.27;17.47;;;;;;;;;;5054385;28;20459;-64
2021/04/20 04:13:11;;;;;;;27.50;17.33;;;;;;;;;;5052273;28;20481;-62
2021/04/20 04:15:39;;;;;;;27.53;19.03;;;;;;;;;;5052560;28;20475;-63
2021/04/20 04:18:09;;;;;;;25.40;18.60;;;;;;;;;;5052846;28;20444;-63
2021/04/20 04:20:35;;;;;;;27.60;18.00;;;;;;;;;;5071667;28;20460;-64
2021/04/20 04:23:05;;;;;;;28.17;18.27;;;;;;;;;;5071846;28;20452;-63
2021/04/20 04:25:33;;;;;;;28.73;18.57;;;;;;;;;;5072156;28;20524;-64
2021/04/20 04:28:01;;;;;;;26.40;18.73;;;;;;;;;;5064935;28;21026;-64
2021/04/20 04:30:28;;;;;;;28.67;18.60;;;;;;;;;;5051633;28;20456;-64
2021/04/20 04:32:55;;;;;;;29.60;18.53;;;;;;;;;;5051964;28;20448;-64
2021/04/20 04:35:23;;;;;;;32.30;20.23;;;;;;;;;;5052210;28;20467;-64
2021/04/20 04:37:50;;;;;;;29.13;19.70;;;;;;;;;;5051969;28;20448;-64
2021/04/20 04:40:17;;;;;;;27.93;18.33;;;;;;;;;;5051563;28;20850;-64
2021/04/20 04:42:44;;;;;;;29.43;19.70;;;;;;;;;;5052053;28;20490;-64
2021/04/20 04:45:12;;;;;;;31.20;21.03;;;;;;;;;;5053502;28;20460;-64
2021/04/20 04:47:39;;;;;;;29.23;19.40;;;;;;;;;;5052702;28;20528;-64
2021/04/20 04:50:06;;;;;;;25.27;18.93;;;;;;;;;;5052317;28;20448;-64
2021/04/20 04:52:34;;;;;;;26.70;18.37;;;;;;;;;;5053543;28;20448;-64
2021/04/20 04:55:01;;;;;;;28.70;17.77;;;;;;;;;;5052588;28;20569;-64
2021/04/20 04:57:28;;;;;;;26.20;17.20;;;;;;;;;;5053184;28;20455;-64
2021/04/20 04:59:55;;;;;;;27.93;18.53;;;;;;;;;;5051694;28;20448;-64
2021/04/20 05:02:22;;;;;;;25.90;18.03;;;;;;;;;;5051794;28;20544;-64
2021/04/20 05:04:49;;;;;;;28.90;18.10;;;;;;;;;;5051783;28;20460;-62
2021/04/20 05:07:16;;;;;;;24.00;18.47;;;;;;;;;;5052133;28;20448;-65
2021/04/20 05:09:43;;;;;;;25.47;18.50;;;;;;;;;;5051064;28;20857;-65
2021/04/20 05:12:11;;;;;;;29.57;18.70;;;;;;;;;;5051284;28;20456;-64
2021/04/20 05:14:38;;;;;;;32.20;20.67;;;;;;;;;;5051093;28;20523;-64
2021/04/20 05:17:05;;;;;;;27.40;19.30;;;;;;;;;;5051346;28;20454;-63
2021/04/20 05:19:32;;;;;;;27.10;19.33;;;;;;;;;;5051293;28;20456;-65
2021/04/20 05:21:59;;;;;;;29.57;19.23;;;;;;;;;;5051360;28;20467;-64
2021/04/20 05:24:27;;;;;;;28.00;20.57;;;;;;;;;;5051430;28;20461;-65
2021/04/20 05:26:54;;;;;;;26.00;18.63;;;;;;;;;;5051377;28;20460;-65
2021/04/20 05:29:21;;;;;;;27.17;19.17;;;;;;;;;;5051177;28;20853;-64
2021/04/20 05:31:48;;;;;;;24.97;17.57;;;;;;;;;;5052217;28;20452;-66
2021/04/20 05:34:15;;;;;;;26.30;18.33;;;;;;;;;;5054011;28;20484;-63
2021/04/20 05:36:41;;;;;;;26.77;17.53;;;;;;;;;;5051365;28;20444;-65
2021/04/20 05:39:09;;;;;;;24.40;18.00;;;;;;;;;;5051448;28;20216;-65
2021/04/20 05:41:36;;;;;;;24.03;18.17;;;;;;;;;;5050897;28;20213;-65
2021/04/20 05:44:04;;;;;;;24.60;18.73;;;;;;;;;;5055523;28;20249;-65
2021/04/20 05:46:32;;;;;;;29.57;20.70;;;;;;;;;;5071037;28;20674;-65
2021/04/20 05:48:59;;;;;;;28.03;20.03;;;;;;;;;;5071637;28;20232;-65
2021/04/20 05:51:25;;;;;;;29.23;19.73;;;;;;;;;;5070908;28;20459;-64
2021/04/20 05:53:53;;;;;;;28.67;19.37;;;;;;;;;;5071636;28;20282;-65
2021/04/20 05:56:21;;;;;;;29.30;19.23;;;;;;;;;;5071159;28;20220;-64
2021/04/20 05:58:51;;;;;;;28.27;18.83;;;;;;;;;;5071374;28;20206;-65
2021/04/20 06:01:18;;;;;;;26.87;18.60;;;;;;;;;;5071237;28;20205;-64
2021/04/20 06:03:45;;;;;;;25.77;17.97;;;;;;;;;;5071225;28;20207;-64
2021/04/20 06:06:13;;;;;;;24.23;18.20;;;;;;;;;;5071331;28;20214;-64
2021/04/20 06:08:40;;;;;;;25.17;18.00;;;;;;;;;;5070946;28;20206;-62
2021/04/20 06:11:08;;;;;;;26.47;18.10;;;;;;;;;;5070377;28;20623;-63
2021/04/20 06:13:35;;;;;;;26.27;18.23;;;;;;;;;;5071139;28;20219;-64
2021/04/20 06:16:01;;;;;;;33.60;21.83;;;;;;;;;;5070858;28;20206;-64
2021/04/20 06:18:30;;;;;;;26.97;17.77;;;;;;;;;;5071061;28;20216;-63
2021/04/20 06:20:59;;;;;;;25.33;17.77;;;;;;;;;;5070659;28;20213;-64
2021/04/20 06:23:26;;;;;;;25.60;17.83;;;;;;;;;;5074059;28;20207;-65
2021/04/20 06:25:56;;;;;;;25.33;16.93;;;;;;;;;;5074558;28;20212;-65
2021/04/20 06:28:24;;;;;;;23.80;15.60;;;;;;;;;;5074360;28;20209;-64
2021/04/20 06:30:50;;;;;;;23.33;17.00;;;;;;;;;;5074199;28;20559;-64
2021/04/20 06:33:17;;;;;;;21.10;16.27;;;;;;;;;;5073913;28;20665;-67
2021/04/20 06:35:45;;;;;;;18.47;14.47;;;;;;;;;;5059071;28;20233;-66
2021/04/20 06:38:12;;;;;;;21.33;15.87;;;;;;;;;;5050956;28;20686;-65
2021/04/20 06:40:41;;;;;;;20.50;15.80;;;;;;;;;;5072794;28;20216;-65
2021/04/20 06:43:10;;;;;;;22.00;15.60;;;;;;;;;;5073622;28;20209;-67
2021/04/20 06:45:39;;;;;;;21.03;15.43;;;;;;;;;;5073996;28;20228;-67
2021/04/20 06:48:11;;;;;;;21.87;15.87;;;;;;;;;;5075426;28;20212;-65
2021/04/20 06:50:38;;;;;;;21.90;15.97;;;;;;;;;;5073050;28;20633;-67
2021/04/20 06:53:08;;;;;;;20.57;15.10;;;;;;;;;;5074042;28;20216;-66
2021/04/20 06:55:37;;;;;;;19.73;14.73;;;;;;;;;;5073718;28;20267;-67
2021/04/20 06:58:07;;;;;;;19.50;14.47;;;;;;;;;;5073398;28;20201;-66
2021/04/20 07:00:40;;;;;;;20.60;15.30;;;;;;;;;;5073168;28;20209;-66
2021/04/20 07:03:11;;;;;;;18.60;13.53;;;;;;;;;;5073121;28;20716;-63
2021/04/20 07:05:43;;;;;;;19.70;14.70;;;;;;;;;;5073649;28;20229;-61
2021/04/20 07:08:19;;;;;;;21.20;14.10;;;;;;;;;;5070677;28;20227;-63
2021/04/20 07:10:45;;;;;;;20.30;14.60;;;;;;;;;;5069563;28;20690;-63
2021/04/20 07:13:13;;;;;;;22.23;15.57;;;;;;;;;;5073529;28;20209;-64
2021/04/20 07:15:43;;;;;;;18.83;15.30;;;;;;;;;;5057090;28;20229;-64
2021/04/20 07:18:24;;;;;;;18.63;13.87;;;;;;;;;;5053638;28;20210;-63
2021/04/20 07:20:59;;;;;;;24.93;18.33;;;;;;;;;;5051484;28;20627;-64
2021/04/20 07:23:32;;;;;;;20.23;15.07;;;;;;;;;;5053206;28;20729;-62
2021/04/20 07:26:07;;;;;;;19.53;15.07;;;;;;;;;;5052988;28;20259;-65
2021/04/20 07:28:38;;;;;;;19.43;15.20;;;;;;;;;;5052589;28;20679;-68
2021/04/20 07:31:07;;;;;;;17.07;14.10;;;;;;;;;;5053012;28;20629;-67
2021/04/20 07:33:49;;;;;;;17.80;14.43;;;;;;;;;;5052307;28;20236;-64
2021/04/20 07:36:22;;;;;;;21.97;15.57;;;;;;;;;;5052986;28;20773;-63
2021/04/20 07:38:56;;;;;;;20.97;15.43;;;;;;;;;;5052769;28;20751;-65
2021/04/20 07:41:24;;;;;;;20.80;15.43;;;;;;;;;;5052469;28;20223;-66
2021/04/20 07:44:01;;;;;;;19.80;15.33;;;;;;;;;;5052534;28;20245;-64
2021/04/20 07:46:31;;;;;;;21.93;14.73;;;;;;;;;;5052632;28;20212;-65
2021/04/20 07:49:00;;;;;;;19.80;15.13;;;;;;;;;;5052270;28;20579;-64
2021/04/20 07:51:30;;;;;;;18.83;15.00;;;;;;;;;;5052314;28;20292;-64
2021/04/20 07:54:06;;;;;;;19.47;15.27;;;;;;;;;;5052483;28;20233;-62
2021/04/20 07:56:36;;;;;;;20.37;14.97;;;;;;;;;;5052580;28;20263;-69
2021/04/20 07:59:05;;;;;;;19.47;13.97;;;;;;;;;;5052254;28;20593;-68
2021/04/20 08:01:36;;;;;;;19.53;15.00;;;;;;;;;;5051871;28;20213;-67
2021/04/20 08:04:24;;;;;;;21.63;14.23;;;;;;;;;;5052290;28;20609;-69
2021/04/20 08:06:52;;;;;;;26.37;16.07;;;;;;;;;;5051485;28;20744;-68
2021/04/20 08:09:24;;;;;;;21.97;14.73;;;;;;;;;;5053054;28;20210;-69
2021/04/20 08:11:53;;;;;;;18.70;14.73;;;;;;;;;;5052222;28;20229;-68
2021/04/20 08:14:24;;;;;;;23.43;15.63;;;;;;;;;;5052165;28;20310;-66
2021/04/20 08:16:52;;;;;;;21.00;15.03;;;;;;;;;;5052379;28;20215;-67
2021/04/20 08:19:33;;;;;;;19.97;14.80;;;;;;;;;;5052178;28;20206;-67
2021/04/20 08:21:59;;;;;;;18.67;14.73;;;;;;;;;;5051969;28;20210;-67
2021/04/20 08:24:30;;;;;;;19.47;14.37;;;;;;;;;;5051959;28;20230;-66
2021/04/20 08:26:59;;;;;;;19.80;15.50;;;;;;;;;;5052406;28;20259;-65
2021/04/20 08:29:28;;;;;;;20.13;15.10;;;;;;;;;;5051418;28;20207;-64
2021/04/20 08:31:56;;;;;;;20.37;15.20;;;;;;;;;;5051143;28;20209;-63
2021/04/20 08:34:26;;;;;;;18.53;14.83;;;;;;;;;;5051348;28;20273;-63
2021/04/20 08:36:57;;;;;;;20.83;15.20;;;;;;;;;;5051557;28;20205;-63
2021/04/20 08:39:30;;;;;;;19.33;14.07;;;;;;;;;;5051784;28;20217;-62
2021/04/20 08:42:04;;;;;;;19.83;14.07;;;;;;;;;;5051396;28;20347;-62
2021/04/20 08:44:35;;;;;;;18.07;14.03;;;;;;;;;;5051298;28;20226;-65
2021/04/20 08:47:04;;;;;;;26.93;19.90;;;;;;;;;;5051327;28;20314;-63
2021/04/20 08:49:38;;;;;;;18.47;14.17;;;;;;;;;;5051452;28;20558;-63
2021/04/20 08:52:07;;;;;;;19.20;15.30;;;;;;;;;;5052660;28;20262;-64
2021/04/20 08:54:42;;;;;;;19.97;14.87;;;;;;;;;;5060980;28;20246;-64
2021/04/20 08:57:15;;;;;;;18.40;14.20;;;;;;;;;;5071676;28;20196;-64
2021/04/20 08:59:52;;;;;;;16.67;13.73;;;;;;;;;;5053693;28;20579;-65
2021/04/20 09:02:30;;;;;;;17.93;13.90;;;;;;;;;;5051146;28;20207;-63
2021/04/20 09:05:00;;;;;;;18.70;15.27;;;;;;;;;;5050714;28;20216;-63
2021/04/20 09:07:32;;;;;;;21.03;15.20;;;;;;;;;;5051334;28;20205;-64
2021/04/20 09:10:03;;;;;;;19.60;14.57;;;;;;;;;;5050943;28;20212;-64
2021/04/20 09:12:31;;;;;;;18.67;14.33;;;;;;;;;;5051147;28;20676;-64
2021/04/20 09:15:01;;;;;;;18.43;13.77;;;;;;;;;;5051863;28;20231;-63
2021/04/20 09:17:30;;;;;;;18.60;15.07;;;;;;;;;;5051258;28;20215;-65
2021/04/20 09:20:02;;;;;;;21.23;14.97;;;;;;;;;;5051070;28;20215;-68
2021/04/20 09:22:38;;;;;;;16.30;13.27;;;;;;;;;;5050791;28;20203;-67
2021/04/20 09:25:09;;;;;;;18.70;14.47;;;;;;;;;;5051407;28;20227;-66
2021/04/20 09:27:40;;;;;;;19.90;14.90;;;;;;;;;;5051748;28;20202;-64
2021/04/20 09:30:11;;;;;;;17.93;14.30;;;;;;;;;;5051146;28;20204;-65
2021/04/20 09:32:50;;;;;;;18.83;14.70;;;;;;;;;;5051577;28;20212;-66
2021/04/20 09:35:17;;;;;;;17.13;13.53;;;;;;;;;;5053933;28;20236;-68
2021/04/20 09:37:45;;;;;;;19.10;15.40;;;;;;;;;;5056248;28;20215;-67
2021/04/20 09:40:14;;;;;;;18.90;14.27;;;;;;;;;;5059233;28;20640;-69
2021/04/20 09:42:55;;;;;;;21.03;14.50;;;;;;;;;;5052732;28;20193;-70
2021/04/20 09:45:24;;;;;;;18.87;14.93;;;;;;;;;;5056198;28;20228;-68
2021/04/20 09:48:00;;;;;;;18.17;14.10;;;;;;;;;;5052745;28;20273;-64
2021/04/20 09:50:31;;;;;;;17.23;14.00;;;;;;;;;;5051273;28;20208;-62
2021/04/20 09:53:16;;;;;;;19.00;15.10;;;;;;;;;;5051147;28;20208;-62
2021/04/20 09:55:43;;;;;;;19.23;14.63;;;;;;;;;;5045509;28;20240;-61
2021/04/20 09:58:11;;;;;;;23.23;14.80;;;;;;;;;;5054768;28;20636;-64
2021/04/20 10:03:28;;;;;;;22.43;16.20;;;;;;;;;;5023417;28;20220;-62
2021/04/20 10:06:00;;;;;;;17.67;13.73;;;;;;;;;;5054597;28;20209;-62
2021/04/20 10:08:34;;;;;;;21.73;16.90;;;;;;;;;;5054585;28;20205;-64
2021/04/20 10:11:05;;;;;;;22.03;16.27;;;;;;;;;;5063427;28;20866;-62
2021/04/20 10:13:41;;;;;;;21.17;17.07;;;;;;;;;;5073893;28;20200;-62
2021/04/20 10:16:11;;;;;;;26.63;18.43;;;;;;;;;;5074509;28;20303;-63
2021/04/20 10:18:42;;;;;;;25.13;18.30;;;;;;;;;;5073712;28;20272;-65
2021/04/20 10:21:13;;;;;;;25.73;18.03;;;;;;;;;;5073740;28;20290;-64
2021/04/20 10:23:47;;;;;;;25.20;19.47;;;;;;;;;;5073723;28;20238;-63
2021/04/20 10:26:20;;;;;;;35.70;24.70;;;;;;;;;;5074336;28;20212;-63
2021/04/20 10:28:51;;;;;;;25.60;18.87;;;;;;;;;;5073666;28;20209;-63
2021/04/20 10:31:19;;;;;;;28.67;18.07;;;;;;;;;;5073145;28;20212;-63
2021/04/20 10:33:48;;;;;;;22.83;17.23;;;;;;;;;;5073968;28;20213;-61
2021/04/20 10:36:15;;;;;;;23.70;18.00;;;;;;;;;;5074008;28;20300;-66
2021/04/20 10:38:42;;;;;;;24.50;18.70;;;;;;;;;;5073650;28;20205;-61
2021/04/20 10:41:21;;;;;;;24.03;17.93;;;;;;;;;;5073586;28;20217;-64
2021/04/20 10:43:49;;;;;;;23.87;18.60;;;;;;;;;;5074413;28;20231;-64
2021/04/20 10:46:23;;;;;;;24.50;18.63;;;;;;;;;;5075300;28;20295;-62
2021/04/20 10:48:50;;;;;;;25.13;17.67;;;;;;;;;;5074136;28;20223;-65
2021/04/20 10:51:17;;;;;;;23.60;18.37;;;;;;;;;;5074175;28;20207;-63
2021/04/20 10:53:46;;;;;;;19.90;16.37;;;;;;;;;;5073474;28;20216;-67
2021/04/20 10:56:14;;;;;;;23.97;17.60;;;;;;;;;;5073596;28;20216;-68
2021/04/20 10:58:44;;;;;;;21.53;16.17;;;;;;;;;;5073747;28;20268;-66
2021/04/20 11:01:15;;;;;;;19.00;14.53;;;;;;;;;;5073159;28;20209;-67
2021/04/20 11:03:42;;;;;;;18.27;13.77;;;;;;;;;;5073418;28;20208;-65
2021/04/20 11:06:17;;;;;;;19.20;15.10;;;;;;;;;;5058938;28;20214;-62
2021/04/20 11:08:46;;;;;;;20.47;14.77;;;;;;;;;;5052152;28;20212;-63
2021/04/20 11:11:18;;;;;;;20.10;15.07;;;;;;;;;;5053122;28;20322;-63
2021/04/20 11:13:44;;;;;;;20.77;14.23;;;;;;;;;;5053054;28;20202;-62
2021/04/20 11:16:12;;;;;;;21.07;14.43;;;;;;;;;;5073587;28;20258;-62
2021/04/20 11:18:44;;;;;;;21.33;15.50;;;;;;;;;;5071990;28;20209;-64
2021/04/20 11:21:13;;;;;;;19.17;14.93;;;;;;;;;;5070780;28;20735;-67
2021/04/20 11:23:46;;;;;;;18.00;13.47;;;;;;;;;;5071739;28;20281;-67
2021/04/20 11:26:14;;;;;;;20.40;14.57;;;;;;;;;;5073043;28;20246;-65
2021/04/20 11:28:47;;;;;;;17.47;14.27;;;;;;;;;;5073121;28;20204;-67
2021/04/20 11:31:20;;;;;;;17.63;12.70;;;;;;;;;;5072355;28;20208;-69
2021/04/20 11:33:50;;;;;;;18.63;13.53;;;;;;;;;;5072713;28;20225;-67
2021/04/20 11:36:19;;;;;;;17.10;13.47;;;;;;;;;;5072119;28;20205;-64
2021/04/20 11:38:47;;;;;;;16.67;13.67;;;;;;;;;;5070879;28;20212;-65
2021/04/20 11:41:15;;;;;;;17.63;13.97;;;;;;;;;;5070693;28;20639;-65
2021/04/20 11:43:43;;;;;;;17.27;13.23;;;;;;;;;;5072707;28;20205;-63
2021/04/20 11:46:15;;;;;;;17.77;14.10;;;;;;;;;;5072791;28;20816;-64
2021/04/20 11:48:43;;;;;;;17.43;13.77;;;;;;;;;;5071929;28;20209;-64
2021/04/20 11:51:10;;;;;;;17.03;14.30;;;;;;;;;;5071721;28;20206;-64
2021/04/20 11:53:41;;;;;;;18.07;13.47;;;;;;;;;;5072633;28;20258;-67
2021/04/20 11:59:21;;;;;;;21.47;14.87;;;;;;;;;;5028618;28;20197;-68
2021/04/20 12:01:48;;;;;;;20.63;15.50;;;;;;;;;;5072422;28;20212;-69
2021/04/20 12:04:15;;;;;;;19.80;14.40;;;;;;;;;;5072328;28;20228;-65
2021/04/20 12:06:44;;;;;;;21.73;15.33;;;;;;;;;;5072344;28;20681;-65
2021/04/20 12:09:14;;;;;;;20.27;15.67;;;;;;;;;;5072493;28;20201;-65
2021/04/20 12:11:41;;;;;;;24.27;15.70;;;;;;;;;;5072968;28;20205;-65
2021/04/20 12:14:11;;;;;;;19.67;14.63;;;;;;;;;;5072195;28;20236;-65
2021/04/20 12:16:38;;;;;;;18.63;15.17;;;;;;;;;;5071938;28;20262;-69
2021/04/20 12:19:06;;;;;;;19.57;14.43;;;;;;;;;;5072493;28;20220;-69
2021/04/20 12:21:36;;;;;;;17.23;13.37;;;;;;;;;;5071641;28;20236;-65
2021/04/20 12:24:04;;;;;;;20.47;15.53;;;;;;;;;;5072007;28;20282;-63
2021/04/20 12:26:31;;;;;;;18.00;14.43;;;;;;;;;;5072016;28;20300;-63
2021/04/20 12:28:59;;;;;;;17.60;14.07;;;;;;;;;;5071810;28;20213;-65
2021/04/20 12:31:29;;;;;;;20.40;14.50;;;;;;;;;;5071439;28;20204;-64
2021/04/20 12:33:56;;;;;;;17.50;13.67;;;;;;;;;;5071654;28;20229;-66
2021/04/20 12:36:24;;;;;;;16.63;13.47;;;;;;;;;;5071632;28;20249;-68
2021/04/20 12:38:52;;;;;;;16.57;13.53;;;;;;;;;;5071480;28;20216;-70
2021/04/20 12:41:19;;;;;;;19.83;14.50;;;;;;;;;;5070890;28;20216;-70
2021/04/20 12:44:10;;;;;;;17.90;14.57;;;;;;;;;;5071793;28;20209;-70
2021/04/20 12:46:37;;;;;;;17.67;14.60;;;;;;;;;;5071994;28;20217;-70
2021/04/20 12:51:53;;;;;;;21.47;15.00;;;;;;;;;;5067273;28;20206;-67
2021/04/20 12:54:20;;;;;;;21.60;15.17;;;;;;;;;;5071295;28;20233;-72
2021/04/20 12:56:48;;;;;;;19.10;14.93;;;;;;;;;;5071054;28;20211;-68
2021/04/20 12:59:18;;;;;;;19.17;15.33;;;;;;;;;;5070917;28;20201;-67
2021/04/20 13:01:47;;;;;;;20.43;15.77;;;;;;;;;;5071164;28;20209;-68
2021/04/20 13:04:14;;;;;;;19.00;15.57;;;;;;;;;;5071339;28;20228;-67
2021/04/20 13:06:47;;;;;;;20.07;15.53;;;;;;;;;;5071727;28;20571;-67
2021/04/20 13:09:14;;;;;;;19.00;14.57;;;;;;;;;;5072113;28;20216;-65
2021/04/20 13:11:41;;;;;;;18.70;15.13;;;;;;;;;;5075855;28;20205;-65
2021/04/20 13:14:09;;;;;;;20.50;15.57;;;;;;;;;;5081875;28;20224;-66
2021/04/20 13:16:35;;;;;;;20.00;15.33;;;;;;;;;;5074142;28;20207;-66
2021/04/20 13:19:03;;;;;;;18.17;15.20;;;;;;;;;;5073138;28;20205;-69
2021/04/20 13:21:31;;;;;;;18.00;15.03;;;;;;;;;;5075472;28;20212;-69
2021/04/20 13:24:02;;;;;;;18.93;15.13;;;;;;;;;;5074517;28;20229;-70
2021/04/20 13:26:53;;;;;;;19.17;15.77;;;;;;;;;;5072503;28;20559;-68
2021/04/20 13:29:26;;;;;;;20.87;15.93;;;;;;;;;;5056371;28;20582;-72
2021/04/20 13:31:53;;;;;;;18.53;14.97;;;;;;;;;;5074884;28;20254;-68
2021/04/20 13:34:25;;;;;;;19.70;15.00;;;;;;;;;;5074983;28;20248;-67
2021/04/20 13:40:10;;;;;;;21.60;15.37;;;;;;;;;;5058610;28;20626;-70
2021/04/20 13:42:42;;;;;;;19.60;15.23;;;;;;;;;;5074117;28;20209;-70
2021/04/20 13:45:11;;;;;;;19.30;16.40;;;;;;;;;;5074912;28;20228;-67
2021/04/20 13:47:39;;;;;;;19.70;15.90;;;;;;;;;;5057500;28;20632;-62
2021/04/20 13:50:06;;;;;;;20.13;15.67;;;;;;;;;;5054863;28;20210;-62
2021/04/20 13:52:35;;;;;;;20.90;16.07;;;;;;;;;;5055269;28;20462;-63
2021/04/20 13:55:03;;;;;;;19.90;16.27;;;;;;;;;;5054710;28;20592;-62
2021/04/20 13:57:31;;;;;;;19.80;15.67;;;;;;;;;;5055302;28;20618;-62
2021/04/20 14:00:02;;;;;;;19.73;15.40;;;;;;;;;;5054711;28;20210;-63
2021/04/20 14:02:32;;;;;;;22.43;15.90;;;;;;;;;;5055128;28;20241;-63
2021/04/20 14:04:59;;;;;;;18.53;15.43;;;;;;;;;;5055047;28;20218;-68
2021/04/20 14:07:59;;;;;;;18.37;14.60;;;;;;;;;;5054996;28;20209;-72
2021/04/20 14:10:27;;;;;;;18.90;15.40;;;;;;;;;;5049976;28;20697;-63
2021/04/20 14:12:55;;;;;;;17.87;15.17;;;;;;;;;;5054801;28;20355;-64
2021/04/20 14:15:26;;;;;;;18.97;15.23;;;;;;;;;;5054816;28;20233;-69
2021/04/20 14:17:55;;;;;;;20.17;13.87;;;;;;;;;;5054832;28;20201;-64
2021/04/20 14:20:23;;;;;;;17.67;13.50;;;;;;;;;;5053964;28;20206;-63
2021/04/20 14:22:51;;;;;;;19.77;14.10;;;;;;;;;;5054786;28;20213;-63
2021/04/20 14:25:19;;;;;;;20.37;15.20;;;;;;;;;;5054485;28;20221;-64
2021/04/20 14:27:46;;;;;;;18.83;14.07;;;;;;;;;;5054804;28;20205;-64
2021/04/20 14:30:13;;;;;;;15.87;13.53;;;;;;;;;;5054218;28;20225;-64
2021/04/20 14:32:40;;;;;;;19.00;14.47;;;;;;;;;;5054297;28;20201;-65
2021/04/20 14:35:09;;;;;;;16.70;13.20;;;;;;;;;;5054031;28;20225;-64
2021/04/20 14:37:37;;;;;;;18.07;14.00;;;;;;;;;;5055765;28;20214;-65
2021/04/20 14:40:03;;;;;;;21.10;14.17;;;;;;;;;;5054474;28;20209;-66